sensor_id;sensor_type;location;lat;lon;timestamp;pressure;altitude;pressure_sealevel;temperature;humidity
58785;BME280;44557;51.862;19.378;2023-02-03T00:01:35;99763.09;;;1.16;83.66
58785;BME280;44557;51.862;19.378;2023-02-03T00:03:37;99760.86;;;1.14;83.69
58785;BME280;44557;51.862;19.378;2023-02-03T00:05:38;99766.80;;;1.09;84.12
58785;BME280;44557;51.862;19.378;2023-02-03T00:07:41;99761.64;;;1.10;83.56
58785;BME280;44557;51.862;19.378;2023-02-03T00:09:44;99757.36;;;1.03;84.45
58785;BME280;44557;51.862;19.378;2023-02-03T00:11:46;99756.59;;;1.07;84.07
58785;BME280;44557;51.862;19.378;2023-02-03T00:13:47;99756.63;;;1.15;83.56
58785;BME280;44557;51.862;19.378;2023-02-03T00:15:49;99757.68;;;1.07;83.80
58785;BME280;44557;51.862;19.378;2023-02-03T00:17:51;99760.61;;;1.06;84.33
58785;BME280;44557;51.862;19.378;2023-02-03T00:19:52;99761.38;;;1.04;84.39
58785;BME280;44557;51.862;19.378;2023-02-03T00:21:54;99761.06;;;1.00;84.53
58785;BME280;44557;51.862;19.378;2023-02-03T00:23:56;99761.59;;;1.04;84.06
58785;BME280;44557;51.862;19.378;2023-02-03T00:26:06;99759.48;;;1.05;83.85
58785;BME280;44557;51.862;19.378;2023-02-03T00:28:08;99767.78;;;0.99;84.34
58785;BME280;44557;51.862;19.378;2023-02-03T00:30:11;99769.23;;;1.04;84.05
58785;BME280;44557;51.862;19.378;2023-02-03T00:32:12;99774.18;;;1.05;83.80
58785;BME280;44557;51.862;19.378;2023-02-03T00:34:14;99775.65;;;1.03;84.07
58785;BME280;44557;51.862;19.378;2023-02-03T00:36:15;99772.29;;;1.00;84.16
58785;BME280;44557;51.862;19.378;2023-02-03T00:38:17;99767.72;;;1.01;83.81
58785;BME280;44557;51.862;19.378;2023-02-03T00:40:19;99767.34;;;1.04;82.93
58785;BME280;44557;51.862;19.378;2023-02-03T00:42:21;99763.39;;;0.98;83.50
58785;BME280;44557;51.862;19.378;2023-02-03T00:44:22;99764.68;;;1.04;83.87
58785;BME280;44557;51.862;19.378;2023-02-03T00:46:24;99763.29;;;0.98;83.91
58785;BME280;44557;51.862;19.378;2023-02-03T00:48:26;99763.66;;;0.94;83.75
58785;BME280;44557;51.862;19.378;2023-02-03T00:50:27;99766.00;;;0.93;83.19
58785;BME280;44557;51.862;19.378;2023-02-03T00:52:29;99761.39;;;0.94;82.98
58785;BME280;44557;51.862;19.378;2023-02-03T00:54:30;99760.09;;;0.98;82.23
58785;BME280;44557;51.862;19.378;2023-02-03T00:56:32;99762.73;;;1.08;81.34
58785;BME280;44557;51.862;19.378;2023-02-03T00:58:33;99756.29;;;1.01;81.05
58785;BME280;44557;51.862;19.378;2023-02-03T01:00:35;99749.39;;;1.01;80.63
58785;BME280;44557;51.862;19.378;2023-02-03T01:02:37;99749.45;;;1.02;79.71
58785;BME280;44557;51.862;19.378;2023-02-03T01:04:39;99749.62;;;1.00;79.25
58785;BME280;44557;51.862;19.378;2023-02-03T01:06:40;99747.98;;;0.97;79.35
58785;BME280;44557;51.862;19.378;2023-02-03T01:08:42;99742.19;;;0.96;77.80
58785;BME280;44557;51.862;19.378;2023-02-03T01:10:44;99746.15;;;0.97;77.29
58785;BME280;44557;51.862;19.378;2023-02-03T01:12:46;99742.31;;;0.93;76.92
58785;BME280;44557;51.862;19.378;2023-02-03T01:14:47;99743.22;;;0.91;77.94
58785;BME280;44557;51.862;19.378;2023-02-03T01:16:49;99742.52;;;0.90;77.64
58785;BME280;44557;51.862;19.378;2023-02-03T01:18:50;99740.23;;;0.98;76.81
58785;BME280;44557;51.862;19.378;2023-02-03T01:20:52;99735.39;;;1.05;76.23
58785;BME280;44557;51.862;19.378;2023-02-03T01:22:54;99740.06;;;0.99;76.64
58785;BME280;44557;51.862;19.378;2023-02-03T01:24:55;99741.59;;;1.01;76.29
58785;BME280;44557;51.862;19.378;2023-02-03T01:26:57;99738.58;;;1.08;75.83
58785;BME280;44557;51.862;19.378;2023-02-03T01:28:59;99733.98;;;1.03;76.13
58785;BME280;44557;51.862;19.378;2023-02-03T01:31:12;99733.23;;;1.04;76.90
58785;BME280;44557;51.862;19.378;2023-02-03T01:33:14;99736.11;;;0.95;77.51
58785;BME280;44557;51.862;19.378;2023-02-03T01:35:16;99730.02;;;1.03;78.04
58785;BME280;44557;51.862;19.378;2023-02-03T01:37:17;99726.43;;;1.05;78.03
58785;BME280;44557;51.862;19.378;2023-02-03T01:39:19;99723.19;;;1.02;78.24
58785;BME280;44557;51.862;19.378;2023-02-03T01:41:29;99723.58;;;0.96;78.76
58785;BME280;44557;51.862;19.378;2023-02-03T01:43:33;99724.92;;;1.03;78.72
58785;BME280;44557;51.862;19.378;2023-02-03T01:45:38;99724.39;;;0.99;79.09
58785;BME280;44557;51.862;19.378;2023-02-03T01:47:47;99719.23;;;1.00;79.34
58785;BME280;44557;51.862;19.378;2023-02-03T01:49:55;99716.63;;;0.99;79.10
58785;BME280;44557;51.862;19.378;2023-02-03T01:51:58;99717.29;;;0.96;79.07
58785;BME280;44557;51.862;19.378;2023-02-03T01:54:00;99715.38;;;0.98;79.17
58785;BME280;44557;51.862;19.378;2023-02-03T01:56:02;99719.67;;;0.96;79.19
58785;BME280;44557;51.862;19.378;2023-02-03T01:58:09;99722.36;;;0.89;79.73
58785;BME280;44557;51.862;19.378;2023-02-03T02:00:13;99719.31;;;0.86;79.87
58785;BME280;44557;51.862;19.378;2023-02-03T02:02:15;99722.95;;;0.88;79.87
58785;BME280;44557;51.862;19.378;2023-02-03T02:04:16;99720.68;;;0.82;80.82
58785;BME280;44557;51.862;19.378;2023-02-03T02:06:18;99715.37;;;0.79;81.18
58785;BME280;44557;51.862;19.378;2023-02-03T02:08:20;99717.64;;;0.80;80.93
58785;BME280;44557;51.862;19.378;2023-02-03T02:10:23;99710.48;;;0.79;80.54
58785;BME280;44557;51.862;19.378;2023-02-03T02:12:25;99708.75;;;0.81;80.60
58785;BME280;44557;51.862;19.378;2023-02-03T02:14:26;99702.95;;;0.89;80.41
58785;BME280;44557;51.862;19.378;2023-02-03T02:16:44;99698.94;;;0.82;80.80
58785;BME280;44557;51.862;19.378;2023-02-03T02:21:47;99677.69;;;0.78;80.58
58785;BME280;44557;51.862;19.378;2023-02-03T02:33:32;99657.42;;;0.68;80.63
58785;BME280;44557;51.862;19.378;2023-02-03T02:38:11;99655.66;;;0.60;81.66
58785;BME280;44557;51.862;19.378;2023-02-03T02:40:33;99657.45;;;0.55;82.07
58785;BME280;44557;51.862;19.378;2023-02-03T02:44:58;99660.60;;;0.61;81.87
58785;BME280;44557;51.862;19.378;2023-02-03T02:47:16;99659.96;;;0.57;82.43
58785;BME280;44557;51.862;19.378;2023-02-03T02:49:24;99668.58;;;0.52;82.87
58785;BME280;44557;51.862;19.378;2023-02-03T02:51:28;99668.19;;;0.58;82.70
58785;BME280;44557;51.862;19.378;2023-02-03T02:53:33;99668.42;;;0.50;83.04
58785;BME280;44557;51.862;19.378;2023-02-03T02:55:37;99663.92;;;0.53;83.13
58785;BME280;44557;51.862;19.378;2023-02-03T02:57:41;99670.37;;;0.50;83.65
58785;BME280;44557;51.862;19.378;2023-02-03T02:59:45;99665.06;;;0.45;83.88
58785;BME280;44557;51.862;19.378;2023-02-03T03:01:47;99663.92;;;0.42;84.18
58785;BME280;44557;51.862;19.378;2023-02-03T03:03:49;99661.22;;;0.45;84.07
58785;BME280;44557;51.862;19.378;2023-02-03T03:05:54;99654.16;;;0.45;84.18
58785;BME280;44557;51.862;19.378;2023-02-03T03:07:58;99653.30;;;0.45;84.39
58785;BME280;44557;51.862;19.378;2023-02-03T03:10:08;99646.48;;;0.45;84.50
58785;BME280;44557;51.862;19.378;2023-02-03T03:12:23;99642.30;;;0.42;84.49
58785;BME280;44557;51.862;19.378;2023-02-03T03:14:30;99638.14;;;0.39;84.96
58785;BME280;44557;51.862;19.378;2023-02-03T03:16:34;99633.00;;;0.36;84.74
58785;BME280;44557;51.862;19.378;2023-02-03T03:18:41;99628.39;;;0.36;85.07
58785;BME280;44557;51.862;19.378;2023-02-03T03:20:46;99622.60;;;0.33;85.10
58785;BME280;44557;51.862;19.378;2023-02-03T03:23:02;99619.57;;;0.26;85.45
58785;BME280;44557;51.862;19.378;2023-02-03T03:25:12;99622.50;;;0.28;85.56
58785;BME280;44557;51.862;19.378;2023-02-03T03:27:23;99617.13;;;0.26;85.85
58785;BME280;44557;51.862;19.378;2023-02-03T03:29:31;99617.23;;;0.30;85.54
58785;BME280;44557;51.862;19.378;2023-02-03T03:31:35;99616.91;;;0.27;85.95
58785;BME280;44557;51.862;19.378;2023-02-03T03:33:37;99618.43;;;0.22;86.02
58785;BME280;44557;51.862;19.378;2023-02-03T03:35:56;99619.84;;;0.21;86.37
58785;BME280;44557;51.862;19.378;2023-02-03T03:38:10;99615.13;;;0.25;86.25
58785;BME280;44557;51.862;19.378;2023-02-03T03:40:23;99612.80;;;0.26;86.16
58785;BME280;44557;51.862;19.378;2023-02-03T03:42:55;99609.60;;;0.25;86.07
58785;BME280;44557;51.862;19.378;2023-02-03T03:45:09;99615.08;;;0.23;86.03
58785;BME280;44557;51.862;19.378;2023-02-03T03:47:20;99612.91;;;0.22;86.35
58785;BME280;44557;51.862;19.378;2023-02-03T03:49:24;99611.11;;;0.29;86.20
58785;BME280;44557;51.862;19.378;2023-02-03T03:51:28;99609.71;;;0.26;86.54
58785;BME280;44557;51.862;19.378;2023-02-03T03:53:33;99611.55;;;0.12;86.97
58785;BME280;44557;51.862;19.378;2023-02-03T03:55:39;99613.25;;;0.14;86.94
58785;BME280;44557;51.862;19.378;2023-02-03T03:57:55;99610.75;;;0.16;87.11
58785;BME280;44557;51.862;19.378;2023-02-03T04:00:01;99611.45;;;0.19;86.67
58785;BME280;44557;51.862;19.378;2023-02-03T04:02:04;99612.80;;;0.20;86.98
58785;BME280;44557;51.862;19.378;2023-02-03T04:04:08;99611.56;;;0.20;87.31
58785;BME280;44557;51.862;19.378;2023-02-03T04:06:11;99611.23;;;0.15;87.17
58785;BME280;44557;51.862;19.378;2023-02-03T04:08:12;99613.20;;;0.15;87.10
58785;BME280;44557;51.862;19.378;2023-02-03T04:10:34;99613.63;;;0.14;87.32
58785;BME280;44557;51.862;19.378;2023-02-03T04:12:36;99615.58;;;0.06;87.62
58785;BME280;44557;51.862;19.378;2023-02-03T04:14:38;99613.69;;;-0.02;87.89
58785;BME280;44557;51.862;19.378;2023-02-03T04:16:40;99613.63;;;0.04;87.89
58785;BME280;44557;51.862;19.378;2023-02-03T04:18:41;99608.64;;;0.07;88.02
58785;BME280;44557;51.862;19.378;2023-02-03T04:20:43;99604.75;;;0.02;88.06
58785;BME280;44557;51.862;19.378;2023-02-03T04:22:45;99602.20;;;0.05;88.17
58785;BME280;44557;51.862;19.378;2023-02-03T04:24:46;99595.82;;;0.01;87.95
58785;BME280;44557;51.862;19.378;2023-02-03T04:26:48;99595.71;;;-0.01;88.27
58785;BME280;44557;51.862;19.378;2023-02-03T04:28:50;99590.98;;;-0.06;88.41
58785;BME280;44557;51.862;19.378;2023-02-03T04:30:51;99592.07;;;0.05;87.99
58785;BME280;44557;51.862;19.378;2023-02-03T04:32:53;99591.09;;;0.05;87.78
58785;BME280;44557;51.862;19.378;2023-02-03T04:34:54;99587.25;;;0.04;87.56
58785;BME280;44557;51.862;19.378;2023-02-03T04:36:56;99587.74;;;0.01;87.97
58785;BME280;44557;51.862;19.378;2023-02-03T04:38:58;99580.49;;;-0.04;88.36
58785;BME280;44557;51.862;19.378;2023-02-03T04:40:59;99577.56;;;-0.04;88.28
58785;BME280;44557;51.862;19.378;2023-02-03T04:43:05;99575.62;;;-0.09;88.33
58785;BME280;44557;51.862;19.378;2023-02-03T04:45:09;99575.67;;;-0.07;88.45
58785;BME280;44557;51.862;19.378;2023-02-03T04:47:11;99572.27;;;-0.08;88.26
58785;BME280;44557;51.862;19.378;2023-02-03T04:49:12;99573.46;;;-0.14;88.64
58785;BME280;44557;51.862;19.378;2023-02-03T04:51:14;99568.53;;;-0.15;88.75
58785;BME280;44557;51.862;19.378;2023-02-03T04:53:15;99565.34;;;-0.14;88.79
58785;BME280;44557;51.862;19.378;2023-02-03T04:55:17;99564.58;;;-0.09;88.46
58785;BME280;44557;51.862;19.378;2023-02-03T04:57:18;99565.01;;;-0.07;88.30
58785;BME280;44557;51.862;19.378;2023-02-03T04:59:20;99565.38;;;-0.03;88.46
58785;BME280;44557;51.862;19.378;2023-02-03T05:01:22;99562.95;;;-0.05;87.95
58785;BME280;44557;51.862;19.378;2023-02-03T05:03:23;99560.79;;;-0.16;88.41
58785;BME280;44557;51.862;19.378;2023-02-03T05:05:25;99559.00;;;-0.20;89.02
58785;BME280;44557;51.862;19.378;2023-02-03T05:07:26;99551.21;;;-0.10;88.38
58785;BME280;44557;51.862;19.378;2023-02-03T05:09:28;99552.20;;;-0.17;88.83
58785;BME280;44557;51.862;19.378;2023-02-03T05:11:29;99550.89;;;-0.17;88.78
58785;BME280;44557;51.862;19.378;2023-02-03T05:13:31;99550.40;;;-0.23;88.99
58785;BME280;44557;51.862;19.378;2023-02-03T05:15:33;99541.25;;;-0.25;89.10
58785;BME280;44557;51.862;19.378;2023-02-03T05:17:34;99539.02;;;-0.22;89.07
58785;BME280;44557;51.862;19.378;2023-02-03T05:19:39;99531.77;;;-0.18;89.08
58785;BME280;44557;51.862;19.378;2023-02-03T05:21:40;99523.33;;;-0.21;88.99
58785;BME280;44557;51.862;19.378;2023-02-03T05:23:42;99522.85;;;-0.24;89.00
58785;BME280;44557;51.862;19.378;2023-02-03T05:25:43;99519.16;;;-0.20;88.97
58785;BME280;44557;51.862;19.378;2023-02-03T05:27:45;99516.95;;;-0.23;89.13
58785;BME280;44557;51.862;19.378;2023-02-03T05:29:47;99510.23;;;-0.32;89.41
58785;BME280;44557;51.862;19.378;2023-02-03T05:31:48;99501.79;;;-0.34;89.60
58785;BME280;44557;51.862;19.378;2023-02-03T05:33:50;99496.33;;;-0.29;89.73
58785;BME280;44557;51.862;19.378;2023-02-03T05:35:51;99494.02;;;-0.31;89.49
58785;BME280;44557;51.862;19.378;2023-02-03T05:37:53;99493.30;;;-0.32;89.73
58785;BME280;44557;51.862;19.378;2023-02-03T05:39:55;99490.70;;;-0.33;89.57
58785;BME280;44557;51.862;19.378;2023-02-03T05:42:16;99484.86;;;-0.38;89.63
58785;BME280;44557;51.862;19.378;2023-02-03T05:44:25;99480.38;;;-0.46;90.12
58785;BME280;44557;51.862;19.378;2023-02-03T05:46:27;99479.89;;;-0.47;90.39
58785;BME280;44557;51.862;19.378;2023-02-03T05:48:29;99480.58;;;-0.46;90.33
58785;BME280;44557;51.862;19.378;2023-02-03T05:50:31;99474.48;;;-0.50;90.72
58785;BME280;44557;51.862;19.378;2023-02-03T05:52:33;99475.23;;;-0.45;90.30
58785;BME280;44557;51.862;19.378;2023-02-03T05:54:35;99468.42;;;-0.55;90.69
58785;BME280;44557;51.862;19.378;2023-02-03T05:56:37;99469.55;;;-0.48;90.73
58785;BME280;44557;51.862;19.378;2023-02-03T05:58:39;99476.16;;;-0.43;90.26
58785;BME280;44557;51.862;19.378;2023-02-03T06:00:40;99470.27;;;-0.49;90.34
58785;BME280;44557;51.862;19.378;2023-02-03T06:02:42;99464.63;;;-0.60;90.91
58785;BME280;44557;51.862;19.378;2023-02-03T06:04:44;99461.23;;;-0.59;91.12
58785;BME280;44557;51.862;19.378;2023-02-03T06:06:45;99460.89;;;-0.58;90.97
58785;BME280;44557;51.862;19.378;2023-02-03T06:08:48;99459.33;;;-0.53;90.80
58785;BME280;44557;51.862;19.378;2023-02-03T06:10:59;99458.67;;;-0.49;90.43
58785;BME280;44557;51.862;19.378;2023-02-03T06:13:09;99453.98;;;-0.54;90.64
58785;BME280;44557;51.862;19.378;2023-02-03T06:15:11;99450.67;;;-0.52;90.47
58785;BME280;44557;51.862;19.378;2023-02-03T06:17:12;99452.61;;;-0.45;90.59
58785;BME280;44557;51.862;19.378;2023-02-03T06:19:14;99449.20;;;-0.45;90.23
58785;BME280;44557;51.862;19.378;2023-02-03T06:21:15;99445.30;;;-0.49;90.29
58785;BME280;44557;51.862;19.378;2023-02-03T06:23:17;99439.89;;;-0.44;90.33
58785;BME280;44557;51.862;19.378;2023-02-03T06:25:19;99438.22;;;-0.43;90.35
58785;BME280;44557;51.862;19.378;2023-02-03T06:27:20;99434.27;;;-0.48;90.40
58785;BME280;44557;51.862;19.378;2023-02-03T06:29:22;99428.21;;;-0.48;90.63
58785;BME280;44557;51.862;19.378;2023-02-03T06:31:24;99423.71;;;-0.46;90.46
58785;BME280;44557;51.862;19.378;2023-02-03T06:33:26;99422.16;;;-0.49;90.55
58785;BME280;44557;51.862;19.378;2023-02-03T06:35:27;99416.63;;;-0.46;90.51
58785;BME280;44557;51.862;19.378;2023-02-03T06:37:29;99409.66;;;-0.49;90.65
58785;BME280;44557;51.862;19.378;2023-02-03T06:39:31;99406.20;;;-0.54;90.50
58785;BME280;44557;51.862;19.378;2023-02-03T06:41:32;99405.17;;;-0.51;90.55
58785;BME280;44557;51.862;19.378;2023-02-03T06:43:34;99395.81;;;-0.53;90.54
58785;BME280;44557;51.862;19.378;2023-02-03T06:45:36;99397.86;;;-0.53;90.65
58785;BME280;44557;51.862;19.378;2023-02-03T06:47:41;99395.88;;;-0.61;91.06
58785;BME280;44557;51.862;19.378;2023-02-03T06:49:43;99393.64;;;-0.53;90.74
58785;BME280;44557;51.862;19.378;2023-02-03T06:51:45;99386.52;;;-0.58;90.90
58785;BME280;44557;51.862;19.378;2023-02-03T06:53:46;99381.69;;;-0.52;90.87
58785;BME280;44557;51.862;19.378;2023-02-03T06:55:48;99376.62;;;-0.61;91.21
58785;BME280;44557;51.862;19.378;2023-02-03T06:57:50;99372.98;;;-0.62;91.14
58785;BME280;44557;51.862;19.378;2023-02-03T06:59:52;99368.65;;;-0.58;91.14
58785;BME280;44557;51.862;19.378;2023-02-03T07:01:53;99363.27;;;-0.66;91.49
58785;BME280;44557;51.862;19.378;2023-02-03T07:03:56;99362.54;;;-0.62;91.51
58785;BME280;44557;51.862;19.378;2023-02-03T07:05:59;99357.25;;;-0.58;91.39
58785;BME280;44557;51.862;19.378;2023-02-03T07:08:00;99355.23;;;-0.54;91.28
58785;BME280;44557;51.862;19.378;2023-02-03T07:10:02;99351.88;;;-0.52;91.24
58785;BME280;44557;51.862;19.378;2023-02-03T07:12:05;99346.73;;;-0.57;91.51
58785;BME280;44557;51.862;19.378;2023-02-03T07:14:06;99343.42;;;-0.53;91.26
58785;BME280;44557;51.862;19.378;2023-02-03T07:16:08;99338.39;;;-0.48;91.04
58785;BME280;44557;51.862;19.378;2023-02-03T07:18:09;99337.92;;;-0.51;91.28
58785;BME280;44557;51.862;19.378;2023-02-03T07:20:11;99330.17;;;-0.52;91.19
58785;BME280;44557;51.862;19.378;2023-02-03T07:22:13;99330.06;;;-0.51;91.09
58785;BME280;44557;51.862;19.378;2023-02-03T07:24:14;99330.56;;;-0.55;91.36
58785;BME280;44557;51.862;19.378;2023-02-03T07:26:16;99325.14;;;-0.49;91.07
58785;BME280;44557;51.862;19.378;2023-02-03T07:28:19;99319.68;;;-0.49;91.24
58785;BME280;44557;51.862;19.378;2023-02-03T07:30:20;99317.70;;;-0.42;91.15
58785;BME280;44557;51.862;19.378;2023-02-03T07:32:22;99315.03;;;-0.52;91.24
58785;BME280;44557;51.862;19.378;2023-02-03T07:34:23;99305.49;;;-0.49;91.33
58785;BME280;44557;51.862;19.378;2023-02-03T07:36:25;99295.22;;;-0.51;91.31
58785;BME280;44557;51.862;19.378;2023-02-03T07:38:28;99292.41;;;-0.50;91.17
58785;BME280;44557;51.862;19.378;2023-02-03T07:40:30;99284.70;;;-0.46;91.07
58785;BME280;44557;51.862;19.378;2023-02-03T07:42:31;99289.33;;;-0.49;90.99
58785;BME280;44557;51.862;19.378;2023-02-03T07:44:33;99286.91;;;-0.43;90.96
58785;BME280;44557;51.862;19.378;2023-02-03T07:46:34;99283.70;;;-0.40;90.77
58785;BME280;44557;51.862;19.378;2023-02-03T07:48:40;99276.36;;;-0.43;90.95
58785;BME280;44557;51.862;19.378;2023-02-03T07:50:41;99269.69;;;-0.51;90.97
58785;BME280;44557;51.862;19.378;2023-02-03T07:52:43;99266.04;;;-0.45;90.90
58785;BME280;44557;51.862;19.378;2023-02-03T07:54:44;99264.52;;;-0.45;90.79
58785;BME280;44557;51.862;19.378;2023-02-03T07:56:46;99266.30;;;-0.41;90.63
58785;BME280;44557;51.862;19.378;2023-02-03T07:58:51;99255.79;;;-0.39;90.50
58785;BME280;44557;51.862;19.378;2023-02-03T08:00:52;99246.36;;;-0.37;90.57
58785;BME280;44557;51.862;19.378;2023-02-03T08:02:54;99241.45;;;-0.43;90.80
58785;BME280;44557;51.862;19.378;2023-02-03T08:04:55;99239.70;;;-0.40;90.77
58785;BME280;44557;51.862;19.378;2023-02-03T08:06:58;99230.75;;;-0.34;90.65
58785;BME280;44557;51.862;19.378;2023-02-03T08:08:59;99227.45;;;-0.33;90.35
58785;BME280;44557;51.862;19.378;2023-02-03T08:11:01;99218.38;;;-0.37;90.57
58785;BME280;44557;51.862;19.378;2023-02-03T08:13:02;99206.05;;;-0.39;90.62
58785;BME280;44557;51.862;19.378;2023-02-03T08:15:05;99203.38;;;-0.36;90.68
58785;BME280;44557;51.862;19.378;2023-02-03T08:17:07;99201.55;;;-0.30;90.36
58785;BME280;44557;51.862;19.378;2023-02-03T08:19:09;99194.65;;;-0.33;90.56
58785;BME280;44557;51.862;19.378;2023-02-03T08:21:11;99189.58;;;-0.26;90.48
58785;BME280;44557;51.862;19.378;2023-02-03T08:23:12;99182.46;;;-0.22;90.44
58785;BME280;44557;51.862;19.378;2023-02-03T08:25:14;99179.65;;;-0.23;90.29
58785;BME280;44557;51.862;19.378;2023-02-03T08:27:20;99181.69;;;-0.20;90.31
58785;BME280;44557;51.862;19.378;2023-02-03T08:29:22;99177.11;;;-0.22;89.93
58785;BME280;44557;51.862;19.378;2023-02-03T08:31:23;99169.33;;;-0.26;89.52
58785;BME280;44557;51.862;19.378;2023-02-03T08:33:25;99162.30;;;-0.18;89.29
58785;BME280;44557;51.862;19.378;2023-02-03T08:35:28;99158.18;;;-0.18;89.37
58785;BME280;44557;51.862;19.378;2023-02-03T08:37:29;99156.64;;;-0.14;89.30
58785;BME280;44557;51.862;19.378;2023-02-03T08:39:33;99153.38;;;-0.13;88.79
58785;BME280;44557;51.862;19.378;2023-02-03T08:41:35;99154.98;;;-0.16;88.85
58785;BME280;44557;51.862;19.378;2023-02-03T08:43:37;99153.52;;;-0.16;88.89
58785;BME280;44557;51.862;19.378;2023-02-03T08:45:39;99150.84;;;-0.12;88.69
58785;BME280;44557;51.862;19.378;2023-02-03T08:47:41;99149.80;;;-0.14;88.58
58785;BME280;44557;51.862;19.378;2023-02-03T08:49:42;99145.45;;;-0.11;88.27
58785;BME280;44557;51.862;19.378;2023-02-03T08:51:45;99134.11;;;-0.07;88.27
58785;BME280;44557;51.862;19.378;2023-02-03T08:53:47;99119.35;;;-0.09;88.11
58785;BME280;44557;51.862;19.378;2023-02-03T08:55:48;99116.00;;;-0.10;87.87
58785;BME280;44557;51.862;19.378;2023-02-03T08:57:50;99110.17;;;-0.06;87.38
58785;BME280;44557;51.862;19.378;2023-02-03T08:59:51;99113.02;;;-0.09;87.54
58785;BME280;44557;51.862;19.378;2023-02-03T09:01:53;99112.04;;;-0.02;87.66
58785;BME280;44557;51.862;19.378;2023-02-03T09:03:55;99112.88;;;0.07;87.30
58785;BME280;44557;51.862;19.378;2023-02-03T09:05:57;99113.73;;;0.02;87.51
58785;BME280;44557;51.862;19.378;2023-02-03T09:07:59;99112.29;;;0.06;87.14
58785;BME280;44557;51.862;19.378;2023-02-03T09:10:01;99106.65;;;0.08;87.36
58785;BME280;44557;51.862;19.378;2023-02-03T09:12:05;99098.89;;;0.09;86.96
58785;BME280;44557;51.862;19.378;2023-02-03T09:14:07;99094.89;;;0.08;87.01
58785;BME280;44557;51.862;19.378;2023-02-03T09:16:09;99090.45;;;0.09;86.88
58785;BME280;44557;51.862;19.378;2023-02-03T09:18:10;99086.57;;;0.11;86.88
58785;BME280;44557;51.862;19.378;2023-02-03T09:20:12;99080.98;;;0.12;86.67
58785;BME280;44557;51.862;19.378;2023-02-03T09:22:15;99073.83;;;0.14;86.57
58785;BME280;44557;51.862;19.378;2023-02-03T09:24:17;99066.81;;;0.16;86.49
58785;BME280;44557;51.862;19.378;2023-02-03T09:26:18;99064.42;;;0.17;86.42
58785;BME280;44557;51.862;19.378;2023-02-03T09:28:20;99054.94;;;0.18;85.78
58785;BME280;44557;51.862;19.378;2023-02-03T09:30:22;99050.26;;;0.25;85.64
58785;BME280;44557;51.862;19.378;2023-02-03T09:32:23;99050.66;;;0.24;85.34
58785;BME280;44557;51.862;19.378;2023-02-03T09:34:25;99049.05;;;0.26;85.25
58785;BME280;44557;51.862;19.378;2023-02-03T09:36:27;99045.94;;;0.28;85.52
58785;BME280;44557;51.862;19.378;2023-02-03T09:38:29;99043.25;;;0.26;85.48
58785;BME280;44557;51.862;19.378;2023-02-03T09:40:34;99035.23;;;0.32;85.37
58785;BME280;44557;51.862;19.378;2023-02-03T09:45:19;99021.48;;;0.41;85.42
58785;BME280;44557;51.862;19.378;2023-02-03T09:47:27;99020.05;;;0.43;85.40
58785;BME280;44557;51.862;19.378;2023-02-03T09:49:40;99014.59;;;0.46;85.18
58785;BME280;44557;51.862;19.378;2023-02-03T09:51:56;99007.75;;;0.46;85.30
58785;BME280;44557;51.862;19.378;2023-02-03T09:54:22;99000.05;;;0.43;85.63
58785;BME280;44557;51.862;19.378;2023-02-03T09:56:33;98990.69;;;0.46;85.75
58785;BME280;44557;51.862;19.378;2023-02-03T09:58:36;98986.81;;;0.45;85.90
58785;BME280;44557;51.862;19.378;2023-02-03T10:00:55;98984.70;;;0.44;86.23
58785;BME280;44557;51.862;19.378;2023-02-03T10:10:39;98945.85;;;0.35;89.92
58785;BME280;44557;51.862;19.378;2023-02-03T10:15:02;98926.23;;;0.28;91.63
58785;BME280;44557;51.862;19.378;2023-02-03T10:19:17;98917.30;;;0.28;93.45
58785;BME280;44557;51.862;19.378;2023-02-03T10:23:35;98903.27;;;0.19;94.75
58785;BME280;44557;51.862;19.378;2023-02-03T10:25:46;98892.83;;;0.18;95.11
58785;BME280;44557;51.862;19.378;2023-02-03T10:27:55;98880.95;;;0.15;95.77
58785;BME280;44557;51.862;19.378;2023-02-03T10:30:26;98870.09;;;0.13;95.92
58785;BME280;44557;51.862;19.378;2023-02-03T10:32:28;98866.36;;;0.08;96.83
58785;BME280;44557;51.862;19.378;2023-02-03T10:34:30;98855.55;;;0.11;97.22
58785;BME280;44557;51.862;19.378;2023-02-03T10:36:53;98843.86;;;0.06;97.18
58785;BME280;44557;51.862;19.378;2023-02-03T10:41:02;98830.44;;;0.05;97.89
58785;BME280;44557;51.862;19.378;2023-02-03T10:43:04;98821.06;;;0.06;98.36
58785;BME280;44557;51.862;19.378;2023-02-03T10:45:24;98815.05;;;0.08;98.71
58785;BME280;44557;51.862;19.378;2023-02-03T10:49:37;98798.05;;;0.02;98.97
58785;BME280;44557;51.862;19.378;2023-02-03T10:51:47;98785.34;;;0.04;99.08
58785;BME280;44557;51.862;19.378;2023-02-03T10:53:50;98770.02;;;0.01;99.80
58785;BME280;44557;51.862;19.378;2023-02-03T10:56:08;98755.70;;;0.03;99.67
58785;BME280;44557;51.862;19.378;2023-02-03T10:58:16;98763.09;;;0.05;99.50
58785;BME280;44557;51.862;19.378;2023-02-03T11:00:30;98745.08;;;0.04;99.55
58785;BME280;44557;51.862;19.378;2023-02-03T11:02:32;98727.03;;;0.03;99.78
58785;BME280;44557;51.862;19.378;2023-02-03T11:04:34;98710.58;;;0.04;99.76
58785;BME280;44557;51.862;19.378;2023-02-03T11:06:52;98703.86;;;0.04;100.00
58785;BME280;44557;51.862;19.378;2023-02-03T11:08:55;98682.82;;;0.03;100.00
58785;BME280;44557;51.862;19.378;2023-02-03T11:11:08;98671.61;;;0.06;100.00
58785;BME280;44557;51.862;19.378;2023-02-03T11:13:18;98673.89;;;0.07;100.00
58785;BME280;44557;51.862;19.378;2023-02-03T11:15:19;98654.58;;;0.05;100.00
58785;BME280;44557;51.862;19.378;2023-02-03T11:17:23;98644.73;;;0.05;100.00
58785;BME280;44557;51.862;19.378;2023-02-03T11:19:27;98643.09;;;0.04;100.00
58785;BME280;44557;51.862;19.378;2023-02-03T11:21:31;98636.98;;;0.01;100.00
58785;BME280;44557;51.862;19.378;2023-02-03T11:23:33;98629.58;;;0.03;100.00
58785;BME280;44557;51.862;19.378;2023-02-03T11:25:35;98622.89;;;-0.02;100.00
58785;BME280;44557;51.862;19.378;2023-02-03T11:27:37;98618.39;;;-0.01;100.00
58785;BME280;44557;51.862;19.378;2023-02-03T11:29:43;98619.13;;;0.03;100.00
58785;BME280;44557;51.862;19.378;2023-02-03T11:31:48;98609.83;;;-0.03;100.00